Time;durP1;ratioP1;P1;durP2;ratioP2;P2;SDS_P1;SDS_P2;PMS_P1;PMS_P2;Temp;Humidity;BMP_temperature;BMP_pressure;BME280_temperature;BME280_humidity;BME280_pressure;Samples;Min_cycle;Max_cycle;Signal;HPM_P1;HPM_P2
2022/07/21 00:01:34;;;;;;;17.70;13.60;;;24.40;96.60;;;;;;5032034;28;20087;-87
2022/07/21 00:04:00;;;;;;;15.25;13.02;;;24.40;96.90;;;;;;5038192;28;20104;-87
2022/07/21 00:06:26;;;;;;;13.52;11.75;;;24.40;97.00;;;;;;5021407;28;20072;-87
2022/07/21 00:08:52;;;;;;;15.65;12.32;;;24.40;97.30;;;;;;5021119;28;20079;-88
2022/07/21 00:11:17;;;;;;;14.40;12.07;;;24.40;97.20;;;;;;5021071;28;20480;-88
2022/07/21 00:13:43;;;;;;;12.90;11.57;;;24.30;97.10;;;;;;5037452;28;20017;-87
2022/07/21 00:16:08;;;;;;;12.93;11.18;;;24.30;97.40;;;;;;5037432;28;20124;-87
2022/07/21 00:18:35;;;;;;;13.52;11.48;;;24.20;97.30;;;;;;5055320;28;20033;-87
2022/07/21 00:21:01;;;;;;;13.35;11.95;;;24.20;97.50;;;;;;5037158;28;20468;-86
2022/07/21 00:23:32;;;;;;;13.88;11.55;;;24.10;97.50;;;;;;5020780;28;20120;-86
2022/07/21 00:25:57;;;;;;;;;;;24.10;97.60;;;;;;5036668;28;20025;-86
2022/07/21 00:28:23;;;;;;;13.52;11.75;;;24.10;97.70;;;;;;5035343;28;19911;-86
2022/07/21 00:30:48;;;;;;;12.50;11.20;;;24.10;97.70;;;;;;5003061;28;20025;-86
2022/07/21 00:33:14;;;;;;;13.38;11.98;;;24.10;97.90;;;;;;5028789;28;20116;-85
2022/07/21 00:35:40;;;;;;;13.38;11.55;;;24.00;97.70;;;;;;5030547;28;20029;-86
2022/07/21 00:38:06;;;;;;;14.25;12.23;;;24.00;97.80;;;;;;5031554;28;20056;-86
2022/07/21 00:40:31;;;;;;;13.35;11.43;;;24.00;97.90;;;;;;5056756;28;20036;-86
2022/07/21 00:42:57;;;;;;;14.27;11.45;;;24.00;98.00;;;;;;5056602;28;20063;-86
2022/07/21 00:45:23;;;;;;;12.55;10.90;;;24.00;97.90;;;;;;5056814;28;20111;-85
2022/07/21 00:47:49;;;;;;;11.82;10.60;;;24.00;98.00;;;;;;5040274;28;20023;-86
2022/07/21 00:50:18;;;;;;;11.95;10.60;;;24.00;97.90;;;;;;5056670;28;20475;-86
2022/07/21 00:52:44;;;;;;;13.57;10.55;;;24.00;98.00;;;;;;5056601;28;20446;-85
2022/07/21 00:55:17;;;;;;;14.75;11.15;;;23.90;98.00;;;;;;5036738;28;20052;-86
2022/07/21 00:57:43;;;;;;;11.55;10.35;;;23.80;97.70;;;;;;5053606;28;20021;-86
2022/07/21 01:00:13;;;;;;;13.95;10.18;;;23.80;97.80;;;;;;5038171;28;20013;-85
2022/07/21 01:02:39;;;;;;;12.83;10.23;;;23.80;97.80;;;;;;5036639;28;20025;-86
2022/07/21 01:05:24;;;;;;;11.85;9.15;;;23.70;97.80;;;;;;5039999;28;20816;-86
2022/07/21 01:07:53;;;;;;;10.57;9.43;;;23.60;97.70;;;;;;5018397;28;20068;-85
2022/07/21 01:10:21;;;;;;;10.95;9.82;;;23.50;97.90;;;;;;5044430;28;20052;-85
2022/07/21 01:12:47;;;;;;;11.32;9.25;;;23.40;97.80;;;;;;5045159;28;20452;-86
2022/07/21 01:15:14;;;;;;;10.23;8.80;;;23.40;97.90;;;;;;5019995;28;20017;-86
2022/07/21 01:17:41;;;;;;;10.52;9.43;;;23.30;98.10;;;;;;5059109;28;20028;-85
2022/07/21 01:20:10;;;;;;;10.43;9.07;;;23.30;98.20;;;;;;5031600;28;20033;-85
2022/07/21 01:22:39;;;;;;;11.30;9.27;;;23.20;98.30;;;;;;5033304;28;20070;-86
2022/07/21 01:25:06;;;;;;;12.40;9.90;;;23.20;98.50;;;;;;5073886;28;20032;-86
2022/07/21 01:27:31;;;;;;;12.43;9.02;;;23.20;98.60;;;;;;5022920;28;20505;-86
2022/07/21 01:29:57;;;;;;;12.88;9.77;;;23.20;98.70;;;;;;5034310;28;20021;-85
2022/07/21 01:32:23;;;;;;;10.73;9.60;;;23.20;98.70;;;;;;5019579;28;20040;-86
2022/07/21 01:34:49;;;;;;;10.45;9.10;;;23.20;98.70;;;;;;5020034;28;20048;-85
2022/07/21 01:37:20;;;;;;;12.00;10.30;;;23.20;98.70;;;;;;5046496;28;20037;-85
2022/07/21 01:42:31;;;;;;;13.02;10.57;;;23.10;98.60;;;;;;5074121;28;19954;-85
2022/07/21 01:44:57;;;;;;;11.88;10.52;;;23.10;98.80;;;;;;5053817;28;20036;-85
2022/07/21 01:47:23;;;;;;;13.07;10.15;;;23.00;98.80;;;;;;5059432;28;20427;-86
2022/07/21 01:49:49;;;;;;;13.07;10.90;;;23.00;98.90;;;;;;5039403;28;20064;-86
2022/07/21 01:52:14;;;;;;;14.05;10.35;;;22.90;99.10;;;;;;5022037;28;20032;-86
2022/07/21 01:54:40;;;;;;;12.18;10.82;;;23.00;99.10;;;;;;5035658;28;20130;-86
2022/07/21 01:57:06;;;;;;;17.73;11.73;;;22.90;99.00;;;;;;5061130;28;20472;-85
2022/07/21 01:59:32;;;;;;;15.45;11.30;;;22.80;99.00;;;;;;5035534;28;20029;-86
2022/07/21 02:01:57;;;;;;;12.68;10.90;;;22.80;99.20;;;;;;5035580;28;20024;-86
2022/07/21 02:04:23;;;;;;;13.27;11.80;;;22.70;99.30;;;;;;5032872;28;20032;-86
2022/07/21 02:06:49;;;;;;;12.50;11.20;;;22.70;99.50;;;;;;5038271;28;20034;-86
2022/07/21 02:09:14;;;;;;;12.50;11.20;;;22.70;99.40;;;;;;5055548;28;20422;-85
2022/07/21 02:11:40;;;;;;;15.75;12.40;;;22.60;99.40;;;;;;5023647;28;20103;-86
2022/07/21 02:14:06;;;;;;;14.23;12.02;;;22.60;99.50;;;;;;5018825;28;20073;-86
2022/07/21 02:16:32;;;;;;;13.73;11.40;;;22.50;99.60;;;;;;5052408;28;20029;-86
2022/07/21 02:18:58;;;;;;;12.80;11.50;;;22.50;99.60;;;;;;5053181;28;20116;-85
2022/07/21 02:21:23;;;;;;;13.38;11.40;;;22.50;99.60;;;;;;5012084;28;20069;-86
2022/07/21 02:24:17;;;;;;;14.82;12.50;;;22.40;99.60;;;;;;5013419;28;20481;-86
2022/07/21 02:26:42;;;;;;;15.80;12.63;;;22.40;99.70;;;;;;5016668;28;20032;-86
2022/07/21 02:29:08;;;;;;;15.90;13.15;;;22.40;99.90;;;;;;5038499;28;20471;-86
2022/07/21 02:31:35;;;;;;;13.77;12.38;;;22.40;99.90;;;;;;5038403;28;20139;-86
2022/07/21 02:34:01;;;;;;;13.27;11.80;;;22.40;99.90;;;;;;5021506;28;20431;-85
2022/07/21 02:36:26;;;;;;;12.85;11.45;;;22.40;99.90;;;;;;5032710;28;20021;-86
2022/07/21 02:38:52;;;;;;;15.98;13.32;;;22.40;99.90;;;;;;5029325;28;20519;-86
2022/07/21 02:41:17;;;;;;;15.32;13.50;;;22.40;99.90;;;;;;5021743;28;20491;-85
2022/07/21 02:43:43;;;;;;;15.30;13.05;;;22.40;99.90;;;;;;5032187;28;20036;-86
2022/07/21 02:46:09;;;;;;;15.95;14.32;;;22.40;99.90;;;;;;5033160;28;20419;-86
2022/07/21 02:48:34;;;;;;;16.40;13.63;;;22.40;99.90;;;;;;5039142;28;20037;-85
2022/07/21 02:51:00;;;;;;;14.93;13.43;;;22.40;99.90;;;;;;5039050;28;20496;-86
2022/07/21 02:53:27;;;;;;;15.90;13.95;;;22.30;99.90;;;;;;5015741;28;20022;-85
2022/07/21 02:55:53;;;;;;;15.90;14.30;;;22.30;99.90;;;;;;5012022;28;20025;-86
2022/07/21 02:58:21;;;;;;;15.30;13.57;;;22.30;99.90;;;;;;5055443;28;20086;-85
2022/07/21 03:00:53;;;;;;;16.27;14.52;;;22.20;99.90;;;;;;5038694;28;20022;-85
2022/07/21 03:03:20;;;;;;;17.48;15.52;;;22.20;99.90;;;;;;5050975;28;20117;-86
2022/07/21 03:05:46;;;;;;;16.17;14.45;;;22.10;99.90;;;;;;5058008;28;20028;-86
2022/07/21 03:08:12;;;;;;;18.45;15.20;;;22.10;99.90;;;;;;5058542;28;20107;-85
2022/07/21 03:10:38;;;;;;;18.17;14.85;;;22.10;99.90;;;;;;5058594;28;20025;-86
2022/07/21 03:13:05;;;;;;;18.40;15.32;;;22.00;99.90;;;;;;5058779;28;20043;-86
2022/07/21 03:15:31;;;;;;;15.45;13.57;;;21.90;99.90;;;;;;5042027;28;20120;-86
2022/07/21 03:18:03;;;;;;;16.70;14.45;;;21.90;99.90;;;;;;5046716;28;20012;-85
2022/07/21 03:20:31;;;;;;;15.75;13.13;;;21.80;99.90;;;;;;5061765;28;20056;-86
2022/07/21 03:22:57;;;;;;;14.63;12.93;;;21.80;99.90;;;;;;5050851;28;20135;-85
2022/07/21 03:25:23;;;;;;;17.65;13.73;;;21.70;99.90;;;;;;5021940;28;20128;-86
2022/07/21 03:27:50;;;;;;;15.65;13.95;;;21.70;99.90;;;;;;5052189;28;20028;-86
2022/07/21 03:30:16;;;;;;;17.52;14.18;;;21.70;99.90;;;;;;5055011;28;20032;-86
2022/07/21 03:32:42;;;;;;;30.95;15.27;;;21.60;99.90;;;;;;5015158;28;20096;-86
2022/07/21 03:35:10;;;;;;;15.35;13.65;;;21.60;99.90;;;;;;5034862;28;20036;-86
2022/07/21 03:37:48;;;;;;;15.68;13.80;;;21.60;99.90;;;;;;5050485;28;20083;-86
2022/07/21 03:40:16;;;;;;;17.00;14.25;;;21.60;99.90;;;;;;5060492;28;20131;-86
2022/07/21 03:42:42;;;;;;;17.77;15.85;;;21.50;99.90;;;;;;5032189;28;20392;-86
2022/07/21 03:45:13;;;;;;;20.58;15.18;;;21.50;99.90;;;;;;5041672;28;20058;-86
2022/07/21 03:47:39;;;;;;;17.30;15.35;;;21.50;99.90;;;;;;5075966;28;20056;-86
2022/07/21 03:50:06;;;;;;;18.23;16.33;;;21.40;99.90;;;;;;5057865;28;20048;-86
2022/07/21 03:52:32;;;;;;;18.35;15.93;;;21.30;99.90;;;;;;5057858;28;20127;-86
2022/07/21 03:55:09;;;;;;;18.75;16.08;;;21.30;99.90;;;;;;5057671;28;20480;-86
2022/07/21 03:57:40;;;;;;;18.83;15.98;;;21.20;99.90;;;;;;5075340;28;20082;-85
2022/07/21 04:00:09;;;;;;;18.40;16.40;;;21.20;99.90;;;;;;5057721;28;20032;-87
2022/07/21 04:02:35;;;;;;;18.58;16.65;;;21.10;99.90;;;;;;5046677;28;20047;-88
2022/07/21 04:05:02;;;;;;;19.52;16.65;;;21.10;99.90;;;;;;5041193;28;20213;-87
2022/07/21 04:07:28;;;;;;;15.88;14.18;;;21.00;99.90;;;;;;5021623;28;20036;-88
2022/07/21 04:09:53;;;;;;;19.35;16.02;;;21.00;99.90;;;;;;5042747;28;20029;-86
2022/07/21 04:12:19;;;;;;;18.90;15.63;;;21.00;99.90;;;;;;5049086;28;20037;-86
2022/07/21 04:14:45;;;;;;;18.05;15.95;;;21.00;99.90;;;;;;5029867;28;20029;-86
2022/07/21 04:17:10;;;;;;;21.65;16.85;;;21.00;99.90;;;;;;5027944;28;20036;-86
2022/07/21 04:19:36;;;;;;;16.55;13.93;;;21.00;99.90;;;;;;5023566;28;20098;-86
2022/07/21 04:22:01;;;;;;;20.45;16.45;;;21.10;99.90;;;;;;5041660;28;20032;-86
2022/07/21 04:24:27;;;;;;;18.75;16.40;;;21.10;99.90;;;;;;5034695;28;20043;-86
2022/07/21 04:26:53;;;;;;;18.42;16.30;;;21.00;99.90;;;;;;5037470;28;20028;-86
2022/07/21 04:29:18;;;;;;;19.42;16.60;;;21.10;99.90;;;;;;5022385;28;20017;-86
2022/07/21 04:31:44;;;;;;;20.65;17.88;;;21.00;99.90;;;;;;5029834;28;20325;-86
2022/07/21 04:34:09;;;;;;;20.30;17.10;;;21.00;99.90;;;;;;5033755;28;20491;-87
2022/07/21 04:36:35;;;;;;;21.42;18.15;;;21.00;99.90;;;;;;5022914;28;20033;-85
2022/07/21 04:39:01;;;;;;;19.98;16.27;;;21.00;99.90;;;;;;5009513;28;20036;-85
2022/07/21 04:41:26;;;;;;;19.40;17.33;;;21.00;99.90;;;;;;5047130;28;20029;-86
2022/07/21 04:43:52;;;;;;;20.25;17.45;;;21.00;99.90;;;;;;5015587;28;20049;-85
2022/07/21 04:46:18;;;;;;;19.83;17.05;;;21.00;99.90;;;;;;5015189;28;20480;-86
2022/07/21 04:48:43;;;;;;;21.85;17.40;;;21.00;99.90;;;;;;5030136;28;20495;-86
2022/07/21 04:51:09;;;;;;;20.08;17.73;;;21.00;99.90;;;;;;5013321;28;20439;-86
2022/07/21 04:53:34;;;;;;;19.80;17.70;;;21.00;99.90;;;;;;5036579;28;20029;-86
2022/07/21 04:56:00;;;;;;;22.92;19.30;;;21.00;99.90;;;;;;5025782;28;20835;-86
2022/07/21 04:58:26;;;;;;;26.42;20.10;;;21.00;99.90;;;;;;5022355;28;20564;-85
2022/07/21 05:00:51;;;;;;;21.48;16.77;;;21.00;99.90;;;;;;5000701;28;20021;-86
2022/07/21 05:03:17;;;;;;;22.45;18.55;;;20.90;99.90;;;;;;4984149;28;20037;-85
2022/07/21 05:05:43;;;;;;;21.52;19.17;;;20.90;99.90;;;;;;5005924;28;20025;-85
2022/07/21 05:08:08;;;;;;;20.77;18.13;;;20.90;99.90;;;;;;5008604;28;20026;-85
2022/07/21 05:10:34;;;;;;;21.95;18.50;;;20.90;99.90;;;;;;4995992;28;20096;-85
2022/07/21 05:13:01;;;;;;;27.15;21.95;;;20.90;99.90;;;;;;5007846;28;20021;-85
2022/07/21 05:15:27;;;;;;;26.75;19.48;;;20.90;99.90;;;;;;5008204;28;20034;-85
2022/07/21 05:17:52;;;;;;;24.65;20.75;;;20.90;99.90;;;;;;5030199;28;20120;-86
2022/07/21 05:20:18;;;;;;;24.70;20.92;;;20.90;99.90;;;;;;5016284;28;20025;-85
2022/07/21 05:22:43;;;;;;;24.95;21.23;;;20.90;99.90;;;;;;5024444;28;20376;-84
2022/07/21 05:25:09;;;;;;;24.73;21.52;;;20.80;99.90;;;;;;4996277;28;20513;-84
2022/07/21 05:27:35;;;;;;;29.75;24.30;;;20.80;99.90;;;;;;5009974;28;20037;-84
2022/07/21 05:30:01;;;;;;;25.48;21.83;;;20.80;99.90;;;;;;4999908;28;20026;-86
2022/07/21 05:32:27;;;;;;;26.00;21.90;;;20.80;99.90;;;;;;5000045;28;20022;-84
2022/07/21 05:34:52;;;;;;;26.60;21.17;;;20.80;99.90;;;;;;5017011;28;20484;-85
2022/07/21 05:37:18;;;;;;;26.85;21.58;;;20.80;99.90;;;;;;5014071;28;20055;-85
2022/07/21 05:39:43;;;;;;;29.10;23.50;;;20.80;99.90;;;;;;5017983;28;20027;-85
2022/07/21 05:42:09;;;;;;;29.70;23.83;;;20.80;99.90;;;;;;5035604;28;20033;-85
2022/07/21 05:44:35;;;;;;;32.13;24.13;;;20.80;99.90;;;;;;5021486;28;20018;-85
2022/07/21 05:47:00;;;;;;;28.10;24.42;;;20.80;99.90;;;;;;5016045;28;20064;-85
2022/07/21 05:49:26;;;;;;;30.73;26.02;;;20.80;99.90;;;;;;4998407;28;20075;-87
2022/07/21 05:51:52;;;;;;;28.90;24.95;;;20.70;99.90;;;;;;4999789;28;20124;-85
2022/07/21 05:54:17;;;;;;;28.40;25.13;;;20.70;99.90;;;;;;4999004;28;20060;-85
2022/07/21 05:56:43;;;;;;;30.90;23.95;;;20.70;99.90;;;;;;5018878;28;20025;-85
2022/07/21 05:59:08;;;;;;;27.80;24.90;;;20.70;99.90;;;;;;5001282;28;20036;-86
2022/07/21 06:01:34;;;;;;;31.25;24.83;;;20.60;99.90;;;;;;5003421;28;20030;-86
2022/07/21 06:04:00;;;;;;;26.83;22.40;;;20.60;99.90;;;;;;5036147;28;20034;-89
2022/07/21 06:06:25;;;;;;;27.45;24.33;;;20.60;99.90;;;;;;4989991;28;20022;-89
2022/07/21 06:08:51;;;;;;;28.45;22.85;;;20.60;99.90;;;;;;5012042;28;20026;-89
2022/07/21 06:11:20;;;;;;;25.58;22.52;;;20.60;99.90;;;;;;5003381;28;20362;-88
2022/07/21 06:13:46;;;;;;;27.90;23.42;;;20.60;99.90;;;;;;5019482;28;20044;-88
2022/07/21 06:16:13;;;;;;;27.13;23.58;;;20.60;99.90;;;;;;5034883;28;20021;-89
2022/07/21 06:18:38;;;;;;;23.80;21.23;;;20.60;99.90;;;;;;5019046;28;20029;-89
2022/07/21 06:21:05;;;;;;;25.88;22.42;;;20.60;99.90;;;;;;5012669;28;20054;-90
2022/07/21 06:23:31;;;;;;;26.10;23.10;;;20.60;99.90;;;;;;5011073;28;20567;-91
2022/07/21 06:25:57;;;;;;;24.98;20.63;;;20.60;99.90;;;;;;5008004;28;20034;-93
2022/07/21 06:28:23;;;;;;;28.05;23.25;;;20.60;99.90;;;;;;4997287;28;20076;-91
2022/07/21 06:30:49;;;;;;;28.52;22.45;;;20.60;99.90;;;;;;5022874;28;20043;-90
2022/07/21 06:33:15;;;;;;;26.80;22.70;;;20.50;99.90;;;;;;5034115;28;20033;-91
2022/07/21 06:35:41;;;;;;;24.77;21.42;;;20.50;99.90;;;;;;5016622;28;20052;-93
2022/07/21 06:38:07;;;;;;;24.88;20.50;;;20.50;99.90;;;;;;5029932;28;20372;-91
2022/07/21 06:40:33;;;;;;;24.58;20.80;;;20.50;99.90;;;;;;5001229;28;20041;-92
2022/07/21 06:42:58;;;;;;;27.08;22.67;;;20.50;99.90;;;;;;5000119;28;20037;-89
2022/07/21 06:45:24;;;;;;;23.88;21.30;;;20.50;99.90;;;;;;5016809;28;20053;-90
2022/07/21 06:47:58;;;;;;;27.50;22.40;;;20.50;99.90;;;;;;5000193;28;20026;-90
2022/07/21 06:50:23;;;;;;;28.55;23.77;;;20.50;99.90;;;;;;5001262;28;20025;-89
2022/07/21 06:52:49;;;;;;;30.55;25.25;;;20.50;99.90;;;;;;5034425;28;20026;-92
2022/07/21 06:55:15;;;;;;;27.05;23.67;;;20.50;99.90;;;;;;5000086;28;20035;-91
2022/07/21 06:57:40;;;;;;;28.00;23.52;;;20.50;99.90;;;;;;5016536;28;20105;-91
2022/07/21 07:00:08;;;;;;;27.17;24.10;;;20.50;99.90;;;;;;4994430;28;20473;-91
2022/07/21 07:02:35;;;;;;;31.70;23.38;;;20.50;99.90;;;;;;4993776;28;20026;-88
2022/07/21 07:05:01;;;;;;;29.25;24.67;;;20.60;99.90;;;;;;5026428;28;20476;-87
2022/07/21 07:07:29;;;;;;;29.58;23.20;;;20.60;99.90;;;;;;5015192;28;20040;-87
2022/07/21 07:09:54;;;;;;;28.05;22.52;;;20.60;99.90;;;;;;5030707;28;20033;-87
2022/07/21 07:12:20;;;;;;;27.83;22.70;;;20.60;99.90;;;;;;5010231;28;20569;-88
2022/07/21 07:14:46;;;;;;;32.92;23.48;;;20.60;99.90;;;;;;5012082;28;20435;-88
2022/07/21 07:17:18;;;;;;;30.33;24.42;;;20.60;99.90;;;;;;5016144;28;20048;-87
2022/07/21 07:19:44;;;;;;;27.23;21.65;;;20.60;99.90;;;;;;5022790;28;20028;-88
2022/07/21 07:22:10;;;;;;;28.25;20.95;;;20.60;99.90;;;;;;5017406;28;20036;-88
2022/07/21 07:24:35;;;;;;;27.90;21.13;;;20.60;99.90;;;;;;5015603;28;20029;-88
2022/07/21 07:27:02;;;;;;;26.38;20.90;;;20.60;99.90;;;;;;5000232;28;20045;-88
2022/07/21 07:29:28;;;;;;;33.35;22.98;;;20.70;99.90;;;;;;4992555;28;20532;-88
2022/07/21 07:31:54;;;;;;;28.70;21.70;;;20.70;99.90;;;;;;4987513;28;20033;-88
2022/07/21 07:34:20;;;;;;;27.60;21.27;;;20.70;99.90;;;;;;5026358;28;20403;-88
2022/07/21 07:36:46;;;;;;;29.33;21.77;;;20.70;99.90;;;;;;5014872;28;20036;-88
2022/07/21 07:39:12;;;;;;;30.20;22.48;;;20.70;99.90;;;;;;5020864;28;20123;-88
2022/07/21 07:41:38;;;;;;;30.20;22.00;;;20.70;99.90;;;;;;5045731;28;20028;-88
2022/07/21 07:44:03;;;;;;;29.98;21.98;;;20.70;99.90;;;;;;5058607;28;20492;-89
2022/07/21 07:46:29;;;;;;;32.20;24.23;;;20.70;99.90;;;;;;5018983;28;20029;-89
2022/07/21 07:48:55;;;;;;;28.98;21.73;;;20.70;99.90;;;;;;5024993;28;20028;-87
2022/07/21 07:51:21;;;;;;;32.47;22.08;;;20.70;99.90;;;;;;5044876;28;20360;-87
2022/07/21 07:53:46;;;;;;;24.88;22.05;;;20.70;99.90;;;;;;5059227;28;20032;-87
2022/07/21 07:56:12;;;;;;;28.42;21.77;;;20.70;99.90;;;;;;5048401;28;20025;-87
2022/07/21 07:58:38;;;;;;;29.40;23.60;;;20.70;99.90;;;;;;5063579;28;20433;-88
2022/07/21 08:01:05;;;;;;;27.92;23.10;;;20.70;99.90;;;;;;5038134;28;20029;-88
2022/07/21 08:03:31;;;;;;;27.70;21.88;;;20.80;99.90;;;;;;5030797;28;20052;-88
2022/07/21 08:06:02;;;;;;;32.05;22.75;;;20.80;99.90;;;;;;5018444;28;20436;-88
2022/07/21 08:08:28;;;;;;;27.92;21.08;;;20.80;99.90;;;;;;5021837;28;20036;-87
2022/07/21 08:10:54;;;;;;;26.92;22.42;;;20.80;99.90;;;;;;5040826;28;20375;-87
2022/07/21 08:13:19;;;;;;;30.73;22.75;;;20.80;99.90;;;;;;5048871;28;20133;-87
2022/07/21 08:15:46;;;;;;;31.73;23.02;;;20.70;99.90;;;;;;5043299;28;20028;-87
2022/07/21 08:18:12;;;;;;;27.38;21.10;;;20.70;99.90;;;;;;5046334;28;20024;-86
2022/07/21 08:20:38;;;;;;;28.00;22.23;;;20.70;99.90;;;;;;5034859;28;20112;-86
2022/07/21 08:23:05;;;;;;;28.08;19.95;;;20.80;99.90;;;;;;5046085;28;20029;-86
2022/07/21 08:25:31;;;;;;;26.65;19.55;;;20.80;99.90;;;;;;5075343;28;20090;-86
2022/07/21 08:27:56;;;;;;;29.08;19.25;;;20.80;99.90;;;;;;5075023;28;20467;-86
2022/07/21 08:30:22;;;;;;;25.85;19.23;;;20.90;99.90;;;;;;5044651;28;20036;-86
2022/07/21 08:32:48;;;;;;;26.65;19.15;;;20.90;99.90;;;;;;5034780;28;20104;-86
2022/07/21 08:35:14;;;;;;;29.55;20.30;;;20.90;99.90;;;;;;5020753;28;20029;-89
2022/07/21 08:37:40;;;;;;;25.08;18.52;;;21.00;99.90;;;;;;5029975;28;20049;-88
2022/07/21 08:40:08;;;;;;;28.40;20.52;;;21.00;99.90;;;;;;5029021;28;20029;-89
2022/07/21 08:42:35;;;;;;;27.70;20.42;;;21.00;99.90;;;;;;5018402;28;20030;-87
2022/07/21 08:45:01;;;;;;;27.02;19.63;;;21.00;99.90;;;;;;5051443;28;20028;-87
2022/07/21 08:47:27;;;;;;;26.98;19.95;;;21.00;99.90;;;;;;5017683;28;20393;-87
2022/07/21 08:49:54;;;;;;;29.08;19.35;;;21.00;99.90;;;;;;4990167;28;20049;-87
2022/07/21 08:52:20;;;;;;;29.00;20.05;;;21.00;99.90;;;;;;5094190;22;20449;-84
2022/07/21 08:54:46;;;;;;;26.58;20.02;;;21.00;99.90;;;;;;5039544;28;20051;-85
2022/07/21 08:57:12;;;;;;;24.70;19.13;;;21.10;99.90;;;;;;5056178;28;20475;-85
2022/07/21 08:59:38;;;;;;;26.55;19.98;;;21.10;99.90;;;;;;5023195;28;20025;-85
2022/07/21 09:02:04;;;;;;;24.73;19.33;;;21.10;99.90;;;;;;5039151;28;20028;-85
2022/07/21 09:04:34;;;;;;;26.67;19.52;;;21.10;99.90;;;;;;5056098;28;20422;-85
2022/07/21 09:07:03;;;;;;;27.55;20.13;;;21.10;99.90;;;;;;5039275;28;20123;-86
2022/07/21 09:09:30;;;;;;;22.52;18.30;;;21.10;99.90;;;;;;5045301;28;20049;-85
2022/07/21 09:11:57;;;;;;;25.30;18.90;;;21.10;99.90;;;;;;5037773;28;20025;-85
2022/07/21 09:14:25;;;;;;;25.95;20.40;;;21.10;99.90;;;;;;5030271;28;20048;-85
2022/07/21 09:16:53;;;;;;;25.45;18.85;;;21.10;99.90;;;;;;5049109;28;20025;-86
2022/07/21 09:19:21;;;;;;;24.20;16.90;;;21.10;99.90;;;;;;5073701;28;20032;-86
2022/07/21 09:21:49;;;;;;;20.40;14.60;;;21.10;99.90;;;;;;5043618;28;20074;-87
2022/07/21 09:24:21;;;;;;;21.02;14.70;;;21.00;99.90;;;;;;5028048;28;20029;-85
2022/07/21 09:27:30;;;;;;;19.23;12.82;;;21.00;99.90;;;;;;5052603;28;20035;-85
2022/07/21 09:30:00;;;;;;;15.43;10.07;;;21.00;99.90;;;;;;5013083;28;20033;-86
2022/07/21 09:32:31;;;;;;;14.00;10.52;;;20.90;99.90;;;;;;5071490;28;20524;-87
2022/07/21 09:35:06;;;;;;;;;;;20.90;99.90;;;;;;5032395;28;20017;-86
2022/07/21 09:37:32;;;;;;;12.65;10.30;;;20.80;99.90;;;;;;5052657;28;19909;-86
2022/07/21 09:40:04;;;;;;;11.77;8.63;;;20.80;99.90;;;;;;5028182;28;20051;-85
2022/07/21 09:42:32;;;;;;;10.13;7.63;;;20.70;99.90;;;;;;5066453;28;20035;-86
2022/07/21 09:45:13;;;;;;;12.48;8.90;;;20.70;99.90;;;;;;5040748;28;20017;-86
2022/07/21 09:47:40;;;;;;;9.52;7.55;;;20.70;99.90;;;;;;5070023;28;20529;-86
2022/07/21 09:50:08;;;;;;;12.32;9.00;;;20.60;99.90;;;;;;5031149;28;20047;-86
2022/07/21 09:52:36;;;;;;;11.55;7.63;;;20.60;99.90;;;;;;5047075;28;20187;-86
2022/07/21 09:55:08;;;;;;;12.13;8.48;;;20.60;99.90;;;;;;5056236;28;20020;-87
2022/07/21 09:57:34;;;;;;;10.93;7.75;;;20.60;99.90;;;;;;5025812;28;20076;-87
2022/07/21 10:00:03;;;;;;;11.70;7.90;;;20.60;99.90;;;;;;5043927;28;20024;-87
2022/07/21 10:02:31;;;;;;;10.23;7.05;;;20.60;99.90;;;;;;5051714;28;20106;-86
2022/07/21 10:05:01;;;;;;;8.55;5.95;;;20.60;99.90;;;;;;5027307;28;20376;-86
2022/07/21 10:07:28;;;;;;;10.48;6.50;;;20.60;99.90;;;;;;5049132;28;20021;-86
2022/07/21 10:09:55;;;;;;;7.70;6.13;;;20.60;99.90;;;;;;5048832;28;20024;-85
2022/07/21 10:12:22;;;;;;;8.57;5.95;;;20.60;99.90;;;;;;5055231;28;20483;-85
2022/07/21 10:14:48;;;;;;;9.27;6.40;;;20.50;99.90;;;;;;5034065;28;20535;-86
2022/07/21 10:17:19;;;;;;;8.82;6.32;;;20.50;99.90;;;;;;5055117;28;20028;-84
2022/07/21 10:19:52;;;;;;;7.05;5.95;;;20.50;99.90;;;;;;5050286;28;20020;-83
2022/07/21 10:22:36;;;;;;;8.40;6.38;;;20.50;99.90;;;;;;5055162;28;20138;-83
2022/07/21 10:25:03;;;;;;;8.60;6.47;;;20.50;99.90;;;;;;5050754;28;20518;-82
2022/07/21 10:27:29;;;;;;;7.38;5.47;;;20.50;99.90;;;;;;5050272;28;20025;-83
2022/07/21 10:30:04;;;;;;;8.18;6.18;;;20.50;99.90;;;;;;5052239;28;20441;-84
2022/07/21 10:32:35;;;;;;;9.60;6.28;;;20.50;99.90;;;;;;5032935;28;20021;-84
2022/07/21 10:35:22;;;;;;;10.63;7.00;;;20.50;99.90;;;;;;5044991;28;20120;-84
2022/07/21 10:37:49;;;;;;;9.18;7.28;;;20.40;99.90;;;;;;5066790;28;20077;-84
2022/07/21 10:40:20;;;;;;;9.82;7.38;;;20.50;99.90;;;;;;5025487;28;20086;-83
2022/07/21 10:43:06;;;;;;;8.43;7.22;;;20.50;99.90;;;;;;5049277;28;20489;-84
2022/07/21 10:45:33;;;;;;;8.85;7.82;;;20.40;99.90;;;;;;5042919;28;20523;-84
2022/07/21 10:48:01;;;;;;;10.80;8.60;;;20.40;99.90;;;;;;5034692;28;20119;-84
2022/07/21 10:50:57;;;;;;;12.52;9.40;;;20.40;99.90;;;;;;5051570;28;20017;-83
2022/07/21 10:53:22;;;;;;;12.38;10.13;;;20.40;99.90;;;;;;5038612;28;20059;-83
2022/07/21 10:55:50;;;;;;;11.85;10.15;;;20.40;99.90;;;;;;5035029;28;20021;-84
2022/07/21 10:58:27;;;;;;;11.20;9.70;;;20.40;99.90;;;;;;5058939;28;20020;-87
2022/07/21 11:01:13;;;;;;;9.55;7.72;;;20.30;99.90;;;;;;5044638;28;20449;-87
2022/07/21 11:03:41;;;;;;;5.75;5.00;;;20.30;99.90;;;;;;5041266;28;20497;-88
2022/07/21 11:06:09;;;;;;;8.20;6.10;;;20.30;99.90;;;;;;5064751;28;20467;-87
2022/07/21 11:08:41;;;;;;;6.93;5.15;;;20.20;99.90;;;;;;5049185;28;20020;-87
2022/07/21 11:11:25;;;;;;;8.40;6.63;;;20.20;99.90;;;;;;5047026;28;20482;-88
2022/07/21 11:14:09;;;;;;;6.43;5.75;;;20.20;99.90;;;;;;5073071;28;20032;-87
2022/07/21 11:19:40;;;;;;;10.00;6.60;;;20.20;99.90;;;;;;5061160;28;20029;-87
2022/07/21 11:22:11;;;;;;;7.88;6.68;;;20.20;99.90;;;;;;5049817;28;20036;-87
2022/07/21 11:24:39;;;;;;;8.32;6.85;;;20.20;99.90;;;;;;5041732;28;20021;-86
2022/07/21 11:27:06;;;;;;;10.25;7.53;;;20.30;99.90;;;;;;5031002;28;20524;-88
2022/07/21 11:29:34;;;;;;;9.07;7.28;;;20.20;99.90;;;;;;5037706;28;20013;-87
2022/07/21 11:32:01;;;;;;;10.40;8.35;;;20.30;99.90;;;;;;5038119;28;20373;-87
2022/07/21 11:34:42;;;;;;;10.85;8.38;;;20.30;99.90;;;;;;5040879;28;20028;-87
2022/07/21 11:37:10;;;;;;;11.60;9.02;;;20.30;99.90;;;;;;5044439;28;20426;-87
2022/07/21 11:39:36;;;;;;;13.27;9.10;;;20.30;99.90;;;;;;5074473;28;20025;-86
2022/07/21 11:42:07;;;;;;;10.48;8.73;;;20.30;99.90;;;;;;5032712;28;20036;-88
2022/07/21 11:44:34;;;;;;;15.05;9.95;;;20.30;99.90;;;;;;5055188;28;20021;-88
2022/07/21 11:47:03;;;;;;;13.38;9.95;;;20.30;99.90;;;;;;5056628;28;20021;-88
2022/07/21 11:49:31;;;;;;;11.50;10.00;;;20.30;99.90;;;;;;5052817;28;20099;-88
2022/07/21 11:52:17;;;;;;;12.63;10.02;;;20.30;99.90;;;;;;5057814;28;20041;-87
2022/07/21 11:54:48;;;;;;;12.52;10.70;;;20.20;99.90;;;;;;5050445;28;20116;-88
2022/07/21 11:57:15;;;;;;;13.95;11.27;;;20.30;99.90;;;;;;5058524;28;20016;-88
2022/07/21 11:59:42;;;;;;;15.18;12.45;;;20.30;99.90;;;;;;5027885;28;20051;-88
2022/07/21 12:02:17;;;;;;;16.63;14.68;;;20.30;99.90;;;;;;5018709;28;20021;-88
2022/07/21 12:04:49;;;;;;;18.15;16.08;;;20.30;99.90;;;;;;5052298;28;20025;-87
2022/07/21 12:07:39;;;;;;;20.08;17.58;;;20.30;99.90;;;;;;5071951;28;20078;-87
2022/07/21 12:10:06;;;;;;;20.83;16.80;;;20.30;99.90;;;;;;5043174;28;20108;-87
2022/07/21 12:12:42;;;;;;;23.13;17.90;;;20.20;99.90;;;;;;5052795;28;20024;-87
2022/07/21 12:15:31;;;;;;;20.77;18.35;;;20.30;99.90;;;;;;5051093;28;20036;-88
2022/07/21 12:18:07;;;;;;;18.20;15.35;;;20.30;99.90;;;;;;5069697;28;20108;-87
2022/07/21 12:20:40;;;;;;;17.38;13.27;;;20.30;99.90;;;;;;5053443;28;20028;-87
2022/07/21 12:23:20;;;;;;;16.30;13.25;;;20.30;99.90;;;;;;5051268;28;20074;-88
2022/07/21 12:25:46;;;;;;;;;;;20.20;99.90;;;;;;5055650;28;20027;-87
2022/07/21 12:28:12;;;;;;;13.93;11.77;;;20.20;99.90;;;;;;5053023;28;19905;-87
2022/07/21 12:30:44;;;;;;;15.70;12.80;;;20.20;99.90;;;;;;5053346;28;20025;-88
2022/07/21 12:33:18;;;;;;;14.88;12.65;;;20.20;99.90;;;;;;5058680;28;20555;-87
2022/07/21 12:36:06;;;;;;;17.30;13.05;;;20.30;99.90;;;;;;5054403;28;20028;-87
2022/07/21 12:38:39;;;;;;;14.10;12.50;;;20.30;99.90;;;;;;5055504;28;20009;-87
2022/07/21 12:41:05;;;;;;;13.57;12.10;;;20.30;99.90;;;;;;5070962;28;20029;-87